Time;durP1;ratioP1;P1;durP2;ratioP2;P2;SDS_P1;SDS_P2;PMS_P1;PMS_P2;Temp;Humidity;BMP_temperature;BMP_pressure;BME280_temperature;BME280_humidity;BME280_pressure;Samples;Min_cycle;Max_cycle;Signal;HPM_P1;HPM_P2
2023/08/19 00:00:23;;;;;;;22.45;11.18;;;20.40;99.90;;;;;;5076804;28;20025;-70
2023/08/19 00:02:49;;;;;;;15.48;10.43;;;20.40;99.90;;;;;;5076751;28;20515;-70
2023/08/19 00:05:15;;;;;;;19.33;10.15;;;20.40;99.90;;;;;;5076269;28;20028;-70
2023/08/19 00:07:40;;;;;;;18.42;10.80;;;20.30;99.90;;;;;;5076630;28;20089;-70
2023/08/19 00:10:06;;;;;;;16.73;10.25;;;20.30;99.90;;;;;;5076361;28;20032;-70
2023/08/19 00:12:32;;;;;;;15.25;10.73;;;20.30;99.90;;;;;;5075865;28;20050;-70
2023/08/19 00:14:58;;;;;;;17.48;10.88;;;20.30;99.90;;;;;;5076082;28;20028;-70
2023/08/19 00:17:24;;;;;;;15.90;10.68;;;20.30;99.90;;;;;;5075892;28;20102;-70
2023/08/19 00:19:50;;;;;;;18.10;10.73;;;20.30;99.90;;;;;;5076360;28;20036;-70
2023/08/19 00:22:18;;;;;;;16.08;9.85;;;20.20;99.90;;;;;;5075965;28;20379;-70
2023/08/19 00:24:44;;;;;;;14.25;10.50;;;20.30;99.90;;;;;;5075551;28;20052;-70
2023/08/19 00:27:09;;;;;;;16.80;10.85;;;20.20;99.90;;;;;;5076252;28;20071;-70
2023/08/19 00:29:35;;;;;;;13.30;9.52;;;20.30;99.90;;;;;;5075273;28;20032;-70
2023/08/19 00:32:01;;;;;;;10.40;9.30;;;20.30;99.90;;;;;;5074861;28;20048;-70
2023/08/19 00:34:27;;;;;;;18.48;10.43;;;20.30;99.90;;;;;;5075927;28;20021;-71
2023/08/19 00:36:54;;;;;;;11.55;8.38;;;20.30;99.90;;;;;;5075146;28;20016;-71
2023/08/19 00:39:19;;;;;;;17.20;9.57;;;20.30;99.90;;;;;;5075329;28;20463;-71
2023/08/19 00:41:45;;;;;;;12.90;9.13;;;20.30;99.90;;;;;;5075990;28;20031;-71
2023/08/19 00:44:11;;;;;;;13.05;9.93;;;20.30;99.90;;;;;;5075611;28;20021;-71
2023/08/19 00:46:37;;;;;;;15.50;9.68;;;20.20;99.90;;;;;;5075661;28;20035;-71
2023/08/19 00:49:02;;;;;;;16.73;9.80;;;20.10;99.90;;;;;;5075297;28;20032;-71
2023/08/19 00:51:28;;;;;;;14.52;9.48;;;20.10;99.90;;;;;;5075268;28;20083;-71
2023/08/19 00:53:54;;;;;;;16.50;10.15;;;20.00;99.90;;;;;;5075492;28;20032;-71
2023/08/19 00:56:20;;;;;;;13.77;10.32;;;20.10;99.90;;;;;;5075343;28;20103;-71
2023/08/19 00:58:45;;;;;;;19.92;10.90;;;20.00;99.90;;;;;;5075758;28;20035;-71
2023/08/19 01:01:11;;;;;;;15.88;9.88;;;20.00;99.90;;;;;;5075221;28;20071;-71
2023/08/19 01:03:37;;;;;;;16.27;10.80;;;20.00;99.90;;;;;;5075607;28;20067;-71
2023/08/19 01:08:52;;;;;;;17.13;10.18;;;20.10;99.90;;;;;;5071419;28;20436;-71
2023/08/19 01:11:58;;;;;;;17.15;10.50;;;20.10;99.90;;;;;;5071230;28;20036;-71
2023/08/19 01:14:39;;;;;;;14.32;9.98;;;20.10;99.90;;;;;;5070661;28;20031;-71
2023/08/19 01:17:10;;;;;;;23.42;11.23;;;20.10;99.90;;;;;;5071040;28;20113;-71
2023/08/19 01:19:37;;;;;;;14.32;10.25;;;20.10;99.90;;;;;;5071356;28;20106;-71
2023/08/19 01:22:04;;;;;;;15.50;9.60;;;20.00;99.90;;;;;;5071102;28;20525;-71
2023/08/19 01:24:35;;;;;;;13.45;9.77;;;20.00;99.90;;;;;;5071030;28;20036;-71
2023/08/19 01:27:04;;;;;;;15.75;9.45;;;20.00;99.90;;;;;;5071178;28;20075;-71
2023/08/19 01:29:29;;;;;;;14.57;9.50;;;19.90;99.90;;;;;;5070658;28;20025;-72
2023/08/19 01:31:55;;;;;;;20.42;10.20;;;20.00;99.90;;;;;;5070611;28;20028;-71
2023/08/19 01:34:22;;;;;;;12.27;9.70;;;19.90;99.90;;;;;;5050460;28;20104;-71
2023/08/19 01:36:53;;;;;;;14.00;9.30;;;19.90;99.90;;;;;;5051147;28;20078;-71
2023/08/19 01:39:21;;;;;;;13.48;9.70;;;19.90;99.90;;;;;;5051134;28;20407;-71
2023/08/19 01:41:48;;;;;;;13.45;10.00;;;19.80;99.90;;;;;;5051046;28;20027;-71
2023/08/19 01:44:14;;;;;;;14.52;10.30;;;19.80;99.90;;;;;;5050705;28;20034;-72
2023/08/19 01:46:40;;;;;;;20.02;10.95;;;19.80;99.90;;;;;;5050760;28;20029;-71
2023/08/19 01:49:06;;;;;;;15.18;9.93;;;19.70;99.90;;;;;;5050519;28;20029;-71
2023/08/19 01:51:31;;;;;;;14.80;9.50;;;19.80;99.90;;;;;;5050793;28;20021;-71
2023/08/19 01:53:57;;;;;;;12.05;9.88;;;19.80;99.90;;;;;;5050390;28;20482;-71
2023/08/19 01:56:23;;;;;;;13.00;10.55;;;19.80;99.90;;;;;;5050809;28;20459;-71
2023/08/19 01:58:48;;;;;;;12.50;9.57;;;19.80;99.90;;;;;;5050414;28;20075;-71
2023/08/19 02:01:14;;;;;;;16.77;9.95;;;19.80;99.90;;;;;;5050338;28;20029;-73
2023/08/19 02:03:40;;;;;;;18.25;10.25;;;19.80;99.90;;;;;;5050044;28;20037;-71
2023/08/19 02:06:06;;;;;;;14.98;10.35;;;19.80;99.90;;;;;;5050564;28;20030;-71
2023/08/19 02:08:31;;;;;;;12.57;10.15;;;19.80;99.90;;;;;;5049074;28;20459;-71
2023/08/19 02:10:57;;;;;;;13.07;9.63;;;19.80;99.90;;;;;;5049365;28;20021;-71
2023/08/19 02:13:22;;;;;;;15.05;10.55;;;19.80;99.90;;;;;;5050136;28;20140;-71
2023/08/19 02:15:48;;;;;;;14.63;10.13;;;19.70;99.90;;;;;;5050030;28;20026;-71
2023/08/19 02:18:14;;;;;;;16.42;10.77;;;19.70;99.90;;;;;;5046977;28;20049;-71
2023/08/19 02:20:40;;;;;;;15.18;10.40;;;19.70;99.90;;;;;;5036778;28;20030;-71
2023/08/19 02:23:05;;;;;;;12.63;10.50;;;19.70;99.90;;;;;;5036886;28;20522;-71
2023/08/19 02:25:31;;;;;;;17.05;10.18;;;19.70;99.90;;;;;;5036231;28;20452;-71
2023/08/19 02:27:56;;;;;;;14.93;9.75;;;19.70;99.90;;;;;;5036645;28;20037;-71
2023/08/19 02:30:22;;;;;;;13.70;10.18;;;19.60;99.90;;;;;;5036522;28;20021;-71
2023/08/19 02:32:47;;;;;;;15.93;10.02;;;19.60;99.90;;;;;;5036872;28;20030;-71
2023/08/19 02:35:13;;;;;;;16.27;10.48;;;19.60;99.90;;;;;;5036362;28;20379;-71
2023/08/19 02:37:39;;;;;;;15.80;10.77;;;19.50;99.90;;;;;;5035864;28;20493;-71
2023/08/19 02:40:06;;;;;;;16.15;10.32;;;19.50;99.90;;;;;;5036290;28;20087;-72
2023/08/19 02:42:31;;;;;;;12.27;10.15;;;19.50;99.90;;;;;;5036289;28;20022;-71
2023/08/19 02:44:58;;;;;;;12.00;9.52;;;19.40;99.90;;;;;;5036086;28;20040;-71
2023/08/19 02:47:23;;;;;;;14.75;10.32;;;19.40;99.90;;;;;;5036071;28;20068;-71
2023/08/19 02:49:49;;;;;;;14.23;9.43;;;19.30;99.90;;;;;;5035681;28;20034;-72
2023/08/19 02:52:15;;;;;;;11.10;9.68;;;19.20;99.90;;;;;;5035883;28;20036;-71
2023/08/19 02:54:40;;;;;;;17.20;10.43;;;19.20;99.90;;;;;;5036224;28;20022;-72
2023/08/19 02:57:06;;;;;;;14.77;11.40;;;19.20;99.90;;;;;;5035868;28;20025;-71
2023/08/19 02:59:31;;;;;;;12.82;10.85;;;19.20;99.90;;;;;;5035943;28;20459;-71
2023/08/19 03:01:57;;;;;;;12.23;10.20;;;19.20;99.90;;;;;;5036213;28;20026;-71
2023/08/19 03:04:23;;;;;;;11.60;10.02;;;19.20;99.90;;;;;;5035832;28;20056;-72
2023/08/19 03:06:48;;;;;;;16.13;10.55;;;19.10;99.90;;;;;;5035477;28;20052;-71
2023/08/19 03:09:14;;;;;;;14.68;10.45;;;19.20;99.90;;;;;;5036129;28;20395;-71
2023/08/19 03:11:41;;;;;;;13.68;10.07;;;19.20;99.90;;;;;;5036079;28;20415;-73
2023/08/19 03:14:07;;;;;;;12.32;9.82;;;19.10;99.90;;;;;;5035777;28;20479;-71
2023/08/19 03:16:33;;;;;;;13.13;10.25;;;19.10;99.90;;;;;;5035771;28;20036;-71
2023/08/19 03:18:58;;;;;;;16.65;10.82;;;19.10;99.90;;;;;;5035456;28;20017;-72
2023/08/19 03:21:24;;;;;;;15.05;10.35;;;19.00;99.90;;;;;;5035228;28;20022;-72
2023/08/19 03:23:49;;;;;;;12.98;10.15;;;19.10;99.90;;;;;;5035544;28;20025;-72
2023/08/19 03:26:15;;;;;;;17.27;11.02;;;19.10;99.90;;;;;;5035536;28;20497;-72
2023/08/19 03:28:41;;;;;;;12.55;10.38;;;19.10;99.90;;;;;;5035123;28;20037;-72
2023/08/19 03:31:08;;;;;;;15.35;10.30;;;19.10;99.90;;;;;;5034717;28;20030;-71
2023/08/19 03:33:33;;;;;;;12.73;9.70;;;19.20;99.90;;;;;;5035325;28;20018;-71
2023/08/19 03:35:59;;;;;;;15.65;10.10;;;19.20;99.90;;;;;;5035515;28;20087;-72
2023/08/19 03:38:26;;;;;;;11.95;9.27;;;19.20;99.90;;;;;;5035576;28;20475;-71
2023/08/19 03:40:52;;;;;;;17.42;9.95;;;19.20;99.90;;;;;;5034971;28;20037;-71
2023/08/19 03:43:17;;;;;;;10.43;8.88;;;19.20;99.90;;;;;;5034553;28;20021;-71
2023/08/19 03:45:43;;;;;;;15.27;9.65;;;19.20;99.90;;;;;;5035293;28;20037;-72
2023/08/19 03:48:08;;;;;;;15.45;9.52;;;19.20;99.90;;;;;;5034717;28;20025;-71
2023/08/19 03:50:34;;;;;;;13.38;9.13;;;19.20;99.90;;;;;;5035202;28;20021;-71
2023/08/19 03:53:00;;;;;;;11.13;8.35;;;19.20;99.90;;;;;;5035291;28;20352;-72
2023/08/19 03:55:26;;;;;;;12.63;9.23;;;19.10;99.90;;;;;;5035409;28;20034;-71
2023/08/19 03:57:51;;;;;;;17.10;8.98;;;19.10;99.90;;;;;;5034403;28;20053;-72
2023/08/19 04:00:17;;;;;;;16.05;9.02;;;19.10;99.90;;;;;;5034557;28;20041;-72
2023/08/19 04:02:43;;;;;;;11.95;8.55;;;19.10;99.90;;;;;;5034747;28;20029;-71
2023/08/19 04:05:10;;;;;;;10.27;8.05;;;19.20;99.90;;;;;;5035130;28;20037;-72
2023/08/19 04:07:36;;;;;;;14.38;8.75;;;19.20;99.90;;;;;;5034049;28;20041;-71
2023/08/19 04:10:03;;;;;;;8.57;7.70;;;19.20;99.90;;;;;;5034803;28;20100;-72
2023/08/19 04:12:29;;;;;;;12.23;7.53;;;19.20;99.90;;;;;;5034432;28;20450;-72
2023/08/19 04:14:54;;;;;;;10.77;7.97;;;19.20;99.90;;;;;;5034276;28;20030;-72
2023/08/19 04:17:20;;;;;;;11.10;7.97;;;19.30;99.90;;;;;;5034001;28;20033;-71
2023/08/19 04:19:46;;;;;;;13.68;7.65;;;19.30;99.90;;;;;;5034844;28;20029;-71
2023/08/19 04:22:13;;;;;;;14.32;7.93;;;19.40;99.90;;;;;;5034811;28;20064;-72
2023/08/19 04:24:39;;;;;;;11.40;7.38;;;19.40;99.90;;;;;;5033952;28;20475;-72
2023/08/19 04:27:05;;;;;;;12.98;7.13;;;19.50;99.90;;;;;;5034630;28;20070;-71
2023/08/19 04:29:32;;;;;;;11.05;7.38;;;19.50;99.90;;;;;;5034334;28;20029;-72
2023/08/19 04:32:00;;;;;;;10.40;7.05;;;19.50;99.90;;;;;;5034305;28;20025;-72
2023/08/19 04:34:25;;;;;;;10.43;6.70;;;19.60;99.90;;;;;;5034268;28;20178;-72
2023/08/19 04:36:51;;;;;;;9.05;6.93;;;19.60;99.90;;;;;;5034430;28;20459;-72
2023/08/19 04:39:16;;;;;;;8.00;6.43;;;19.70;99.90;;;;;;5034348;28;20041;-72
2023/08/19 04:41:42;;;;;;;11.90;6.95;;;19.80;99.90;;;;;;5033900;28;20045;-72
2023/08/19 04:44:08;;;;;;;12.43;7.05;;;19.80;99.90;;;;;;5034357;28;20030;-72
2023/08/19 04:46:33;;;;;;;8.90;7.15;;;19.80;99.90;;;;;;5034114;28;20029;-71
2023/08/19 04:48:59;;;;;;;7.35;6.60;;;19.90;99.90;;;;;;5033766;28;20049;-71
2023/08/19 04:51:24;;;;;;;7.35;6.05;;;20.00;99.90;;;;;;5034085;28;20029;-71
2023/08/19 04:53:50;;;;;;;8.57;6.72;;;20.10;99.90;;;;;;5033990;28;20407;-71
2023/08/19 04:56:16;;;;;;;10.98;6.15;;;20.10;99.90;;;;;;5033437;28;20038;-72
2023/08/19 04:58:41;;;;;;;12.65;6.45;;;20.20;99.90;;;;;;5034105;28;20061;-71
2023/08/19 05:01:07;;;;;;;13.48;6.70;;;20.30;99.90;;;;;;5034258;28;20037;-72
2023/08/19 05:03:32;;;;;;;10.57;6.15;;;20.40;99.90;;;;;;5033675;28;20029;-71
2023/08/19 05:05:58;;;;;;;11.00;6.72;;;20.50;99.90;;;;;;5033885;28;20029;-72
2023/08/19 05:08:24;;;;;;;11.65;5.95;;;20.60;99.90;;;;;;5032977;28;20092;-72
2023/08/19 05:10:50;;;;;;;14.68;6.47;;;20.70;99.90;;;;;;5033503;28;20030;-72
2023/08/19 05:13:16;;;;;;;9.43;5.63;;;20.70;99.90;;;;;;5034239;28;20502;-72
2023/08/19 05:15:41;;;;;;;11.48;5.55;;;20.80;99.90;;;;;;5033921;28;20053;-72
2023/08/19 05:18:07;;;;;;;11.15;5.95;;;20.90;99.90;;;;;;5032849;28;20025;-72
2023/08/19 05:20:33;;;;;;;12.65;5.93;;;21.00;99.90;;;;;;5032888;28;20033;-72
2023/08/19 05:22:58;;;;;;;10.15;5.97;;;21.20;99.90;;;;;;5033683;28;20033;-73
2023/08/19 05:25:24;;;;;;;8.30;5.38;;;21.30;99.90;;;;;;5032912;28;20057;-72
2023/08/19 05:27:49;;;;;;;6.38;5.05;;;21.40;99.90;;;;;;5033560;28;20116;-72
2023/08/19 05:30:15;;;;;;;7.70;5.20;;;21.60;99.90;;;;;;5033574;28;20364;-71
2023/08/19 05:32:41;;;;;;;7.78;5.40;;;21.70;99.90;;;;;;5033624;28;20026;-72
2023/08/19 05:35:07;;;;;;;6.15;4.60;;;21.80;99.90;;;;;;5033872;28;20061;-72
2023/08/19 05:37:32;;;;;;;8.20;5.68;;;22.00;98.20;;;;;;5033033;28;20471;-72
2023/08/19 05:39:58;;;;;;;11.32;5.20;;;22.10;81.90;;;;;;5033824;28;20030;-72
2023/08/19 05:42:24;;;;;;;7.40;4.95;;;22.20;75.20;;;;;;5033191;28;20026;-76
2023/08/19 05:44:49;;;;;;;7.22;4.70;;;22.60;94.90;;;;;;5033810;28;20105;-72
2023/08/19 05:47:15;;;;;;;9.07;4.88;;;22.70;92.40;;;;;;5033356;28;20394;-72
2023/08/19 05:49:41;;;;;;;6.85;4.45;;;23.00;42.20;;;;;;5033880;28;20104;-72
2023/08/19 05:52:06;;;;;;;7.80;4.47;;;23.30;21.30;;;;;;5033424;28;20037;-72
2023/08/19 05:54:32;;;;;;;8.43;4.88;;;24.20;3.00;;;;;;5035733;28;20395;-72
2023/08/19 05:56:58;;;;;;;7.25;4.80;;;25.40;1.00;;;;;;5036766;28;20120;-72
2023/08/19 05:59:23;;;;;;;5.82;3.60;;;26.30;99.90;;;;;;5037393;28;20040;-72
2023/08/19 06:01:49;;;;;;;9.35;4.18;;;26.80;99.90;;;;;;5037335;28;20029;-73
2023/08/19 06:04:15;;;;;;;5.53;3.42;;;27.10;99.90;;;;;;5037408;28;20272;-72
2023/08/19 06:06:41;;;;;;;7.22;4.03;;;27.40;1.00;;;;;;5036711;28;20052;-72
2023/08/19 06:09:08;;;;;;;5.63;3.47;;;27.60;99.90;;;;;;5036586;28;20460;-72
2023/08/19 06:11:34;;;;;;;10.38;3.97;;;27.70;1.00;;;;;;5037274;28;20028;-73
2023/08/19 06:13:59;;;;;;;7.97;3.80;;;28.10;99.90;;;;;;5036679;28;20112;-72
2023/08/19 06:16:26;;;;;;;8.25;3.70;;;28.90;99.90;;;;;;5036852;28;20426;-72
2023/08/19 06:18:52;;;;;;;5.63;3.55;;;28.40;56.70;;;;;;5036590;28;20036;-72
2023/08/19 06:21:17;;;;;;;7.18;4.18;;;27.90;99.90;;;;;;5036974;28;20029;-72
2023/08/19 06:23:43;;;;;;;9.38;4.15;;;27.00;72.40;;;;;;5036680;28;20028;-72
2023/08/19 06:26:09;;;;;;;8.45;4.07;;;26.40;99.90;;;;;;5036918;28;20486;-72
2023/08/19 06:28:34;;;;;;;5.35;3.95;;;25.90;1.00;;;;;;5036374;28;20088;-72
2023/08/19 06:31:00;;;;;;;5.03;3.90;;;25.60;1.00;;;;;;5035676;28;20064;-72
2023/08/19 06:33:27;;;;;;;7.75;4.55;;;25.30;1.00;;;;;;5036606;28;20037;-72
2023/08/19 06:35:56;;;;;;;7.30;4.32;;;25.10;1.00;;;;;;5036875;28;20059;-72
2023/08/19 06:38:27;;;;;;;9.82;5.25;;;24.90;1.00;;;;;;5036507;28;20026;-72
2023/08/19 06:41:00;;;;;;;8.50;4.20;;;25.00;1.00;;;;;;5036408;28;20037;-72
2023/08/19 06:43:26;;;;;;;8.60;4.53;;;25.00;1.00;;;;;;5036210;28;20521;-72
2023/08/19 06:45:56;;;;;;;11.40;4.18;;;25.00;1.00;;;;;;5036217;28;20037;-72
2023/08/19 06:48:23;;;;;;;8.57;4.20;;;25.30;1.00;;;;;;5035683;28;20025;-72
2023/08/19 06:50:51;;;;;;;10.57;4.40;;;25.50;1.00;;;;;;5036402;28;20383;-72
2023/08/19 06:53:17;;;;;;;12.60;4.53;;;25.90;1.00;;;;;;5036225;28;20091;-72
2023/08/19 06:55:50;;;;;;;5.53;4.20;;;26.50;1.00;;;;;;5035914;28;20024;-72
2023/08/19 06:58:18;;;;;;;;;;;27.30;99.90;;;;;;5036843;28;20037;-72
2023/08/19 07:00:45;;;;;;;6.03;3.88;;;;;;;;;;5036057;28;19905;-72
2023/08/19 07:03:12;;;;;;;6.15;3.63;;;;;;;;;;5035913;28;20075;-72
2023/08/19 07:05:39;;;;;;;8.25;3.90;;;31.50;99.90;;;;;;5036142;28;20033;-72
2023/08/19 07:08:10;;;;;;;5.65;3.55;;;30.60;1.00;;;;;;5035219;28;20473;-72
2023/08/19 07:10:36;;;;;;;8.18;3.75;;;29.80;1.00;;;;;;5036110;28;20025;-72
2023/08/19 07:13:03;;;;;;;6.32;3.78;;;28.90;99.90;;;;;;5036070;28;20368;-72
2023/08/19 07:15:29;;;;;;;5.18;3.67;;;29.50;99.90;;;;;;5035139;28;20028;-72
2023/08/19 07:17:59;;;;;;;4.68;3.60;;;30.00;1.00;;;;;;5035930;28;20467;-72
2023/08/19 07:20:25;;;;;;;6.85;3.55;;;29.80;99.90;;;;;;5035987;28;20112;-72
2023/08/19 07:22:52;;;;;;;8.07;3.55;;;29.70;99.90;;;;;;5036019;28;20076;-72
2023/08/19 07:25:20;;;;;;;6.07;3.25;;;29.10;1.00;;;;;;5034592;28;20056;-73
2023/08/19 07:27:46;;;;;;;4.47;3.60;;;28.30;99.90;;;;;;5035095;28;20040;-72
2023/08/19 07:30:12;;;;;;;5.80;3.67;;;27.90;1.00;;;;;;5035445;28;20112;-72
2023/08/19 07:32:39;;;;;;;9.50;3.60;;;27.70;99.90;;;;;;5035531;28;20025;-72
2023/08/19 07:35:05;;;;;;;6.90;3.60;;;27.50;1.00;;;;;;5035366;28;20411;-72
2023/08/19 07:37:31;;;;;;;5.07;3.47;;;27.30;15.90;;;;;;5034913;28;20383;-72
2023/08/19 07:39:58;;;;;;;5.78;3.97;;;27.20;99.90;;;;;;5035192;28;20029;-72
2023/08/19 07:42:24;;;;;;;9.52;4.07;;;27.20;99.90;;;;;;5035043;28;20025;-72
2023/08/19 07:44:49;;;;;;;11.10;3.92;;;27.40;99.90;;;;;;5035356;28;20056;-72
2023/08/19 07:47:15;;;;;;;6.40;3.85;;;27.70;1.00;;;;;;5035273;28;20061;-72
2023/08/19 07:49:41;;;;;;;5.07;3.88;;;27.70;1.00;;;;;;5034735;28;20076;-72
2023/08/19 07:52:07;;;;;;;8.30;3.53;;;28.00;99.90;;;;;;5035006;28;20095;-72
2023/08/19 07:54:32;;;;;;;7.05;3.85;;;28.30;99.90;;;;;;5035138;28;20475;-72
2023/08/19 07:56:58;;;;;;;7.82;3.50;;;28.40;1.00;;;;;;5034936;28;20067;-72
2023/08/19 07:59:25;;;;;;;8.00;3.80;;;28.40;99.90;;;;;;5035246;28;20032;-72
2023/08/19 08:01:51;;;;;;;7.10;3.83;;;28.40;99.90;;;;;;5035118;28;20034;-72
2023/08/19 08:04:17;;;;;;;5.63;4.05;;;28.40;99.90;;;;;;5034900;28;20021;-72
2023/08/19 08:06:45;;;;;;;23.45;6.15;;;28.50;99.90;;;;;;5034456;28;20106;-72
2023/08/19 08:09:11;;;;;;;10.32;3.80;;;28.60;99.90;;;;;;5034793;28;20021;-72
2023/08/19 08:11:36;;;;;;;8.27;3.92;;;28.80;60.10;;;;;;5035009;28;20025;-72
2023/08/19 08:14:02;;;;;;;6.53;3.47;;;28.90;1.00;;;;;;5034434;28;20034;-72
2023/08/19 08:16:28;;;;;;;11.73;3.78;;;28.80;1.00;;;;;;5033828;28;20033;-72
2023/08/19 08:18:53;;;;;;;8.75;3.67;;;29.20;83.70;;;;;;5034552;28;20533;-72
2023/08/19 08:21:20;;;;;;;9.23;3.35;;;30.40;1.00;;;;;;5034876;28;20399;-72
2023/08/19 08:23:47;;;;;;;7.07;3.80;;;30.70;1.00;;;;;;5034536;28;20025;-72
2023/08/19 08:26:13;;;;;;;6.47;3.45;;;30.20;99.90;;;;;;5034829;28;20029;-72
2023/08/19 08:28:38;;;;;;;6.13;3.42;;;30.00;1.00;;;;;;5034244;28;20478;-72
2023/08/19 08:31:04;;;;;;;6.88;3.72;;;30.20;99.90;;;;;;5034624;28;20032;-72
2023/08/19 08:33:30;;;;;;;6.78;3.70;;;30.20;99.90;;;;;;5034076;28;20037;-72
2023/08/19 08:35:55;;;;;;;7.72;3.55;;;30.30;99.90;;;;;;5034681;28;20107;-72
2023/08/19 08:38:21;;;;;;;4.68;3.10;;;30.50;99.90;;;;;;5034002;28;20040;-73
2023/08/19 08:40:47;;;;;;;10.93;4.00;;;30.70;99.90;;;;;;5034118;28;20399;-72
2023/08/19 08:43:14;;;;;;;6.65;3.58;;;31.00;99.90;;;;;;5034256;28;20036;-72
2023/08/19 08:45:41;;;;;;;7.15;3.30;;;30.90;99.90;;;;;;5034512;28;20033;-72
2023/08/19 08:48:09;;;;;;;8.65;3.60;;;30.70;1.00;;;;;;5034276;28;20033;-72
2023/08/19 08:50:34;;;;;;;4.50;3.60;;;30.90;99.90;;;;;;5034008;28;20028;-72
2023/08/19 08:53:01;;;;;;;6.45;3.53;;;31.30;99.90;;;;;;5034145;28;20033;-72
2023/08/19 08:55:26;;;;;;;8.35;3.65;;;31.70;1.00;;;;;;5034285;28;20033;-72
2023/08/19 08:57:52;;;;;;;5.28;3.72;;;31.70;1.00;;;;;;5033909;28;20029;-72
2023/08/19 09:00:18;;;;;;;5.80;3.38;;;31.90;1.00;;;;;;5033538;28;20029;-72
2023/08/19 09:02:45;;;;;;;4.15;3.47;;;31.90;99.90;;;;;;5033739;28;20064;-72
2023/08/19 09:05:12;;;;;;;7.22;3.47;;;31.70;1.00;;;;;;5033932;28;20030;-72
2023/08/19 09:07:39;;;;;;;4.70;3.50;;;31.90;99.90;;;;;;5033341;28;20072;-72
2023/08/19 09:10:13;;;;;;;7.55;4.10;;;31.50;99.90;;;;;;5034134;28;20061;-72
2023/08/19 09:12:44;;;;;;;6.82;3.50;;;31.70;99.90;;;;;;5033511;28;20021;-72
2023/08/19 09:15:11;;;;;;;8.55;3.10;;;31.90;1.00;;;;;;5033420;28;20034;-72
2023/08/19 09:17:39;;;;;;;7.38;3.33;;;32.00;90.00;;;;;;5034129;28;20056;-72
2023/08/19 09:20:06;;;;;;;10.10;3.45;;;32.00;1.00;;;;;;5034065;28;20037;-72
2023/08/19 09:22:31;;;;;;;7.38;3.10;;;31.90;1.00;;;;;;5034104;28;20060;-72
2023/08/19 09:24:57;;;;;;;6.57;3.30;;;31.80;1.00;;;;;;5034033;28;20061;-72
2023/08/19 09:27:26;;;;;;;5.65;3.15;;;31.60;1.00;;;;;;5033533;28;20026;-72
2023/08/19 09:29:52;;;;;;;5.80;3.20;;;31.50;99.90;;;;;;5036840;28;20056;-72
2023/08/19 09:32:27;;;;;;;8.40;3.50;;;31.20;99.90;;;;;;5037499;28;20029;-72
2023/08/19 09:37:42;;;;;;;7.95;3.60;;;30.80;99.90;;;;;;5111909;27;20384;-72
2023/08/19 09:40:11;;;;;;;8.68;3.90;;;30.50;99.90;;;;;;5111492;28;20078;-72
2023/08/19 09:42:38;;;;;;;6.75;3.40;;;30.50;1.90;;;;;;5111438;28;20031;-72
2023/08/19 09:45:04;;;;;;;7.05;3.15;;;30.50;99.90;;;;;;5111959;28;20343;-72
2023/08/19 09:47:44;;;;;;;5.82;3.63;;;30.70;33.20;;;;;;5111024;28;20031;-72
2023/08/19 09:50:09;;;;;;;8.27;3.78;;;30.90;1.00;;;;;;5111564;28;20024;-72
2023/08/19 09:52:35;;;;;;;9.70;3.63;;;31.40;94.20;;;;;;5111340;28;20088;-72
2023/08/19 09:55:01;;;;;;;5.28;3.42;;;31.20;99.90;;;;;;5111839;28;20427;-72
2023/08/19 09:57:34;;;;;;;8.13;3.47;;;31.50;99.90;;;;;;5111094;28;20024;-72
2023/08/19 10:00:03;;;;;;;6.85;3.78;;;32.00;99.90;;;;;;5111428;28;20032;-72
2023/08/19 10:02:29;;;;;;;8.63;3.55;;;31.90;99.90;;;;;;5110520;28;20016;-72
2023/08/19 10:04:56;;;;;;;8.07;4.20;;;32.10;99.90;;;;;;5111268;28;20157;-72
2023/08/19 10:07:30;;;;;;;8.52;3.53;;;32.40;1.00;;;;;;5111391;28;20027;-72
2023/08/19 10:10:00;;;;;;;6.95;3.63;;;32.50;99.90;;;;;;5111122;28;20031;-72
2023/08/19 10:12:27;;;;;;;11.05;3.67;;;32.60;1.00;;;;;;5111474;28;20027;-72
2023/08/19 10:14:57;;;;;;;7.03;3.55;;;32.40;99.90;;;;;;5110838;28;20028;-72
2023/08/19 10:17:25;;;;;;;8.35;3.75;;;32.30;99.90;;;;;;5110801;28;20080;-71
2023/08/19 10:19:58;;;;;;;10.77;4.03;;;32.30;99.90;;;;;;5111344;28;20020;-72
2023/08/19 10:22:26;;;;;;;10.18;4.00;;;32.10;1.00;;;;;;5110995;28;20103;-72
2023/08/19 10:24:57;;;;;;;9.55;3.92;;;31.50;1.00;;;;;;5110943;28;20115;-71
2023/08/19 10:27:22;;;;;;;6.13;3.53;;;31.00;1.00;;;;;;5110960;28;20024;-72
2023/08/19 10:29:57;;;;;;;6.10;4.05;;;30.80;99.90;;;;;;5111102;28;20401;-72
2023/08/19 10:32:28;;;;;;;5.80;4.05;;;30.90;99.90;;;;;;5110217;28;20500;-72
2023/08/19 10:35:04;;;;;;;8.73;4.13;;;30.70;1.00;;;;;;5111049;28;20027;-71
2023/08/19 10:37:31;;;;;;;7.00;3.65;;;30.50;1.00;;;;;;5109731;28;20055;-71
2023/08/19 10:40:21;;;;;;;9.38;4.25;;;30.30;99.90;;;;;;5110433;28;20016;-71
2023/08/19 10:42:57;;;;;;;12.57;4.60;;;30.20;1.00;;;;;;5110063;28;20363;-71
2023/08/19 10:45:22;;;;;;;7.53;4.40;;;30.10;1.00;;;;;;5110497;28;20035;-71
2023/08/19 10:47:51;;;;;;;6.57;4.53;;;30.00;99.90;;;;;;5104211;28;20024;-71
2023/08/19 10:50:17;;;;;;;6.93;4.43;;;30.10;99.90;;;;;;5097077;28;20024;-71
2023/08/19 10:53:04;;;;;;;7.72;4.68;;;30.10;62.80;;;;;;5096492;28;20125;-71
2023/08/19 10:55:50;;;;;;;8.60;4.38;;;30.20;99.90;;;;;;5096300;28;20024;-71
2023/08/19 10:58:17;;;;;;;7.63;4.53;;;30.30;99.90;;;;;;5096778;28;20373;-71
2023/08/19 11:00:44;;;;;;;7.07;4.18;;;30.40;1.00;;;;;;5096894;28;20081;-71
2023/08/19 11:03:11;;;;;;;6.63;4.68;;;30.30;1.00;;;;;;5095999;28;20036;-71
2023/08/19 11:05:36;;;;;;;6.13;5.07;;;30.40;1.00;;;;;;5096847;28;20516;-71
2023/08/19 11:08:06;;;;;;;8.77;4.57;;;30.20;99.90;;;;;;5096138;28;20031;-71
2023/08/19 11:10:32;;;;;;;6.65;4.68;;;30.40;53.20;;;;;;5096430;28;20486;-71
2023/08/19 11:13:00;;;;;;;9.52;4.57;;;30.30;1.00;;;;;;5096662;28;20028;-71
2023/08/19 11:15:25;;;;;;;7.15;5.15;;;30.30;1.00;;;;;;5096395;28;20076;-71
2023/08/19 11:17:51;;;;;;;5.93;4.43;;;30.70;99.90;;;;;;5096598;28;20103;-71
2023/08/19 11:20:17;;;;;;;18.15;4.72;;;31.00;1.00;;;;;;5096228;28;20401;-72
2023/08/19 11:22:46;;;;;;;11.48;4.60;;;31.20;99.90;;;;;;5096581;28;20108;-71
2023/08/19 11:25:13;;;;;;;7.80;4.63;;;31.70;1.00;;;;;;5096561;28;20105;-72
2023/08/19 11:27:39;;;;;;;7.93;5.00;;;31.90;99.90;;;;;;5095823;28;20466;-71
2023/08/19 11:30:08;;;;;;;8.13;5.00;;;31.50;99.90;;;;;;5096499;28;20031;-71
2023/08/19 11:32:35;;;;;;;7.47;5.38;;;31.30;99.90;;;;;;5095585;28;20064;-71
2023/08/19 11:35:01;;;;;;;8.20;5.18;;;30.90;1.00;;;;;;5095687;28;20020;-71
2023/08/19 11:37:29;;;;;;;8.25;5.32;;;30.70;1.00;;;;;;5095160;28;20074;-71
2023/08/19 11:39:54;;;;;;;10.65;5.20;;;30.80;99.90;;;;;;5095945;28;20027;-71
2023/08/19 11:42:20;;;;;;;14.43;5.43;;;30.80;2.00;;;;;;5095434;28;20103;-71
2023/08/19 11:44:46;;;;;;;7.60;5.68;;;30.40;99.90;;;;;;5095235;28;20027;-71
2023/08/19 11:47:13;;;;;;;8.90;5.13;;;30.30;99.90;;;;;;5096164;28;20039;-71
2023/08/19 11:49:42;;;;;;;9.88;5.85;;;30.20;75.70;;;;;;5095742;28;20028;-71
2023/08/19 11:52:08;;;;;;;9.32;5.65;;;30.20;99.90;;;;;;5096006;28;20032;-71
2023/08/19 11:54:33;;;;;;;9.93;5.07;;;30.20;1.00;;;;;;5094660;28;20032;-71
2023/08/19 11:57:02;;;;;;;7.72;5.28;;;30.50;99.90;;;;;;5095338;28;20153;-71
2023/08/19 11:59:30;;;;;;;7.18;5.28;;;30.70;99.90;;;;;;5094590;28;20472;-71
2023/08/19 12:01:58;;;;;;;11.82;5.88;;;30.70;99.90;;;;;;5095538;28;20058;-71
2023/08/19 12:04:24;;;;;;;11.48;5.78;;;30.90;1.00;;;;;;5095743;28;20111;-71
2023/08/19 12:06:49;;;;;;;8.40;5.25;;;30.90;14.50;;;;;;5095292;28;20457;-71
2023/08/19 12:09:30;;;;;;;8.02;5.30;;;30.90;1.00;;;;;;5095385;28;20089;-71
2023/08/19 12:12:06;;;;;;;9.80;5.63;;;30.90;99.90;;;;;;5095657;28;20020;-71
2023/08/19 12:14:32;;;;;;;10.70;5.30;;;31.30;1.00;;;;;;5095293;28;20082;-71
2023/08/19 12:16:58;;;;;;;11.55;5.78;;;31.50;1.00;;;;;;5094709;28;20032;-72
2023/08/19 12:19:23;;;;;;;10.55;5.82;;;31.40;99.90;;;;;;5095162;28;20028;-71
2023/08/19 12:21:49;;;;;;;10.38;5.70;;;31.70;99.90;;;;;;5094752;28;20424;-72
2023/08/19 12:24:14;;;;;;;7.43;5.40;;;31.80;99.90;;;;;;5095355;28;20032;-71
2023/08/19 12:26:40;;;;;;;8.68;5.60;;;31.70;1.00;;;;;;5095165;28;20444;-71
2023/08/19 12:29:05;;;;;;;12.35;6.07;;;31.50;99.90;;;;;;5094416;28;20035;-71
2023/08/19 12:31:31;;;;;;;10.95;5.70;;;31.30;1.00;;;;;;5094949;28;20038;-71
2023/08/19 12:33:57;;;;;;;12.40;6.15;;;30.90;99.90;;;;;;5095190;28;20347;-71
2023/08/19 12:36:22;;;;;;;8.63;6.05;;;30.90;51.90;;;;;;5094192;28;20059;-71
2023/08/19 12:38:48;;;;;;;13.45;6.38;;;31.00;24.80;;;;;;5094398;28;20077;-71
2023/08/19 12:41:14;;;;;;;8.18;6.35;;;31.50;99.90;;;;;;5094421;28;20109;-71
2023/08/19 12:43:39;;;;;;;10.25;6.57;;;31.30;1.00;;;;;;5094991;28;20454;-71
2023/08/19 12:46:05;;;;;;;10.43;6.15;;;31.20;99.90;;;;;;5094976;28;20404;-71